航空気象通報

ウインドサーファーのための航空気象通報による風予報です。

1/30-2/1の航空気象通報

2018年01月31日 00時36分58秒 | TAF
羽田空港
TAF RJTT 301109Z 3012/3118 14009KT 9999 FEW030 BKN050
BECMG 3012/3014 01006KT
BECMG 3103/3106 10006KT
BECMG 3112/3115 35006KT
日本時間30日21時:140度から9ノットの風
21-23時:風が変化
23時-31日12時:010度から6ノットの風
12-15時:風が変化
15-21時:100度から6ノットの風
21-24時:風が変化
1日00-03時:350度から6ノットの風


静岡空港
TAF RJNS 301105Z 3012/3118 26012KT 9999 FEW030
日本時間30日21時-1日03時:260度から12ノットの風


福岡空港
TAF RJFF 301110Z 3012/3118 15007KT 9999 FEW030 SCT045
BECMG 3103/3106 34005KT
BECMG 3109/3112 15005KT
日本時間30日21時-31日12時:150度から7ノットの風
12-15時:風が変化
15-18時:340度から5ノットの風
18-21時:風が変化
21時-1日03時:150度から5ノットの風


那覇空港
TAF ROAH 301107Z 3012/3118 05010KT 9999 FEW030 BKN045
BECMG 3100/3103 11012KT
TEMPO 3106/3112 2000 +SHRA FEW005 BKN008 SCT020CB
BECMG 3109/3112 02011KT
BECMG 3112/3115 01026KT
TEMPO 3112/3118 01028G38KT
日本時間30日21時-31日09時:050度から10ノットの風
09-12時:風が変化
12-18時:110度から12ノットの風
18-21時:風が変化
21時-1日03時:010度から26ノットの風
但し、31日21時-1日03時の間:時々010度から28ノット、突風38ノット


石垣空港
TAF ROIG 301111Z 3012/3118 06016KT 9999 FEW010 BKN030
BECMG 3100/3103 17011KT
TEMPO 3100/3106 3000 SHRA FEW005 BKN008 FEW020CB
BECMG 3103/3106 36014KT
日本時間30日21時-31日09時:060度から16ノットの風
09-12時:風が変化
12時:170度から11ノットの風
12-15時:風が変化
15時-1日03時:360度から14ノットの風

但し、31日09-15時の間:時々

マウイのカフルイ空港
PHOG 301137Z 3012/3112 18005KT P6SM FEW025
FM302100 20015G22KT P6SM SCT030 SCT050
FM310400 19011KT P6SM FEW030 SCT050 AMD LTD TO VIS AND WIND TIL 301600
ハワイ時間30日02-11時:180度から5ノットの風
11-18時:200度から15ノット、突風22ノット
18時-31日02時:190度から11ノットの風


サイパン空港
PGSN 301508Z 3015/3112 08012KT P6SM VCSH FEW018 SCT040 BKN100
TEMPO 3015/3018 09015G25KT 3SM +SHRA BKN016 OVC030
FM310000 08012G20KT P6SM VCSH FEW020 SCT050 SCT100
マリアナ時間31日01-10時:080度から12ノットの風
10-22時:080度から12ノット、突風20ノット

但し、31日01-04時の間:時々
コメント

1/28-1/30の航空気象通報

2018年01月28日 22時27分34秒 | TAF
羽田空港
TAF RJTT 281105Z 2812/2918 36006KT 9999 FEW030
BECMG 2900/2903 10006KT
BECMG 2906/2909 36014KT
日本時間28日21時-29日09時:360度から6ノットの風
09-12時:風が変化
12-15時:100度から6ノットの風
15-18時:風が変化
18時-30日03時:360度から14ノットの風


静岡空港
TAF RJNS 281106Z 2812/2918 26020KT 9999 FEW030
TEMPO 2900/2909 27024G36KT
日本時間28日21時-30日03時:260度から20ノットの風
但し、29日09-18時の間:時々270度から24ノット、突風36ノット


福岡空港
TAF RJFF 281105Z 2812/2918 20004KT 8000 FEW015 SCT025 BKN035
BECMG 2812/2814 32011KT
TEMPO 2818/2821 3000 -SHSN
TEMPO 2906/2912 3000 -SHSN
TEMPO 2912/2918 4000 -SHSN
日本時間28日21時:200度から4ノットの風
21-23時:風が変化
23時-30日03時:320度から11ノットの風

但し、29日03-06時の間:時々
但し、29日21時-30日03時の間:時々

那覇空港
TAF ROAH 281105Z 2812/2918 24018KT 9000 SCT010 BKN020
BECMG 2812/2814 36022KT
TEMPO 2812/2814 3000 +SHRA
TEMPO 2814/2816 4000 SHRA
日本時間28日21時:240度から18ノットの風
21-23時:風が変化
23時-30日03時:360度から22ノットの風

但し、28日21時-29日01時の間:時々

石垣空港
TAF ROIG 281108Z 2812/2918 01018KT 9999 FEW010 BKN025
TEMPO 2814/2900 01022G32KT
日本時間28日21時-30日03時:010度から18ノットの風
但し、28日23時-29日09時の間:時々010度から22ノット、突風32ノット


マウイのカフルイ空港
PHOG 281120Z 2812/2912 14005KT P6SM FEW030 FEW050 OVC060
FM282000 03013KT P6SM VCSH SCT025 BKN045
FM290400 03007KT P6SM FEW025 SCT045 AMD LTD TO VIS AND WIND TIL 281600
ハワイ時間28日02-10時:140度から5ノットの風
10-18時:030度から13ノットの風

18時-29日02時:030度から7ノットの風


サイパン空港
PGSN 281141Z 2812/2912 04012G22KT P6SM VCSH FEW022 SCT040
マリアナ時間28日22時-30日22時:040度から12ノット、突風22ノット
コメント

1/27-1/29の航空気象通報

2018年01月27日 23時50分03秒 | TAF
羽田空港
TAF RJTT 271105Z 2712/2818 33014KT 9999 FEW030
BECMG 2800/2803 09006KT
BECMG 2803/2806 18010KT
BECMG 2815/2818 26006KT
日本時間27日21時-28日09時:330度から14ノットの風
09-12時:風が変化
12時:090度から6ノットの風
12-15時:風が変化
15-24時:180度から10ノットの風
29日00-03時:風が変化
03時:260度から6ノットの風


静岡空港
TAF RJNS 271105Z 2712/2818 27010KT 9999 FEW030
BECMG 2722/2800 02004KT
BECMG 2803/2806 25012KT
TEMPO 2812/2815 4000 -RA BR FEW005 BKN008
日本時間27日21時-28日07時:270度から10ノットの風
07-09時:風が変化
09-12時:020度から4ノットの風
12-15時:風が変化
15時-29日03時:250度から12ノットの風

但し、28日21-24時の間:時々

福岡空港
TAF RJFF 271105Z 2712/2818 15005KT 9999 FEW035
BECMG 2803/2806 34012KT
TEMPO 2803/2809 4000 SHRA BR
日本時間27日21時-28日12時:150度から5ノットの風
12-15時:風が変化
15時-29日03時:340度から12ノットの風

但し、28日12-18時の間:時々

那覇空港
TAF ROAH 271105Z 2712/2818 06006KT 9999 FEW030 BKN045
BECMG 2715/2717 12006KT
BECMG 2809/2812 20018KT
TEMPO 2815/2818 4000 SHRA FEW008 BKN020 FEW025CB
日本時間27日21-24時:060度から6ノットの風
28日00-02時:風が変化
02-18時:120度から6ノットの風
18-21時:風が変化
21時-29日03時:200度から18ノットの風

但し、29日00-03時の間:時々

石垣空港
TAF ROIG 271108Z 2712/2818 08010KT 9999 SCT025 BKN040
BECMG 2721/2723 14008KT
BECMG 2806/2809 20012KT
BECMG 2812/2815 35012KT
TEMPO 2812/2815 4000 SHRA
日本時間27日21時-28日06時:080度から10ノットの風
06-08時:風が変化
08-15時:140度から8ノットの風
15-18時:風が変化
18-21時:200度から12ノットの風
21-24時:風が変化
29日00-03時:350度から12ノットの風


マウイのカフルイ空港
PHOG 271132Z 2712/2812 14005KT P6SM FEW030 FEW050
FM272100 03009KT P6SM SCT030 SCT050
FM280400 VRB05KT P6SM FEW030 FEW050 AMD LTD TO VIS AND WIND TIL 271600
ハワイ時間27日02-11時:140度から5ノットの風
11-18時:030度から9ノットの風
18時-28日02時:風向不定5ノットの風


サイパン空港
PGSN 271122Z 2712/2812 03011KT P6SM FEW030 SCT050
FM272200 04017KT P6SM SCT025 SCT050
マリアナ時間27日22時-28日08時:030度から11ノットの風
08-22時:040度から17ノットの風
コメント

1/26-1/28の航空気象通報

2018年01月26日 23時09分23秒 | TAF
羽田空港
TAF RJTT 261105Z 2612/2718 32012KT 9999 FEW040
TEMPO 2612/2613 32018G28KT
日本時間26日21時-28日03時:320度から12ノットの風
但し、26日21-22時の間:時々320度から18ノット、突風28ノット


静岡空港
TAF RJNS 261105Z 2612/2718 27015KT 9999 FEW030
TEMPO 2700/2706 28020G30KT
日本時間26日21時-28日03時:270度から15ノットの風
但し、27日09-15時の間:時々280度から20ノット、突風30ノット


福岡空港
TAF RJFF 261107Z 2612/2718 33009KT 9999 FEW020 BKN035
BECMG 2618/2620 07003KT
BECMG 2700/2703 33008KT
BECMG 2709/2712 15005KT
日本時間26日21時-27日03時:330度から9ノットの風
03-05時:風が変化
05-09時:070度から3ノットの風
09-12時:風が変化
12-18時:330度から8ノットの風
18-21時:風が変化
21時-28日03時:150度から5ノットの風


那覇空港
TAF ROAH 261105Z 2612/2718 01020KT 9999 FEW020 BKN040
BECMG 2616/2618 04010KT
日本時間26日21時-27日01時:010度から20ノットの風
01-03時:風が変化
03時-28日03時:040度から10ノットの風


石垣空港
TAF ROIG 261110Z 2612/2718 04018KT 9999 FEW008 SCT015 BKN020
BECMG 2712/2715 10009KT
日本時間26日21時-27日21時:040度から18ノットの風
21-24時:風が変化
28日00-03時:100度から9ノットの風


マウイのカフルイ空港
PHOG 261136Z 2612/2712 18005KT P6SM FEW030 BKN250
FM262100 36011KT P6SM SCT030 SCT050
FM270500 15005KT P6SM FEW030 FEW050 AMD LTD TO VIS AND WIND TIL 261600
ハワイ時間26日02-11時:180度から5ノットの風

11-19時:360度から11ノットの風
19時-27日02時:150度から5ノットの風


サイパン空港
PGSN 261120Z 2612/2712 05011KT P6SM VCSH SCT025 BKN060
FM262200 05018KT P6SM VCSH SCT025 SCT050
マリアナ時間26日22時-27日08時:050度から11ノットの風

08-22時:050度から18ノットの風
コメント

1/25-1/27の航空気象通報

2018年01月25日 23時01分35秒 | TAF
羽田空港
TAF RJTT 251105Z 2512/2618 34010KT 9999 FEW040
日本時間25日21時-27日03時:340度から10ノットの風


静岡空港
TAF RJNS 251106Z 2512/2618 26016KT 9999 FEW025
TEMPO 2600/2609 27022G32KT
日本時間25日21時-27日03時:260度から16ノットの風
但し、26日09-18時の間:時々270度から22ノット、突風32ノット


福岡空港
TAF RJFF 251107Z 2512/2618 31012KT 9999 FEW020 BKN040
日本時間25日21時-27日03時:310度から12ノットの風


那覇空港
TAF ROAH 251105Z 2512/2618 05006KT 9999 FEW025 BKN045
TEMPO 2603/2609 02018KT
日本時間25日21時-27日03時:050度から6ノットの風
但し、26日12-18時の間:時々020度から18ノットの風


石垣空港
TAF ROIG 251109Z 2512/2618 06015KT 9999 FEW025 BKN035
日本時間25日21時-27日03時:060度から15ノットの風


マウイのカフルイ空港
PHOG 251139Z 2512/2612 14005KT P6SM FEW035 SCT050 BKN250
FM252100 07012G19KT P6SM FEW035 SCT050 BKN250
FM260400 07008KT P6SM FEW035 SCT050
FM260600 15005KT P6SM FEW035 SCT050 AMD LTD TO VIS AND WIND TIL 251600
ハワイ時間25日02-11時:140度から5ノットの風
11-18時:070度から12ノット、突風19ノット
18-20時:070度から8ノットの風
20時-26日02時:150度から5ノットの風


サイパン空港
PGSN 251120Z 2512/2612 04008KT P6SM FEW025 SCT050
FM252200 04015KT P6SM VCSH SCT025 BKN050
マリアナ時間25日22時-26日08時:040度から8ノットの風

08-22時:040度から15ノットの風

コメント